sensor_id;sensor_type;location;lat;lon;timestamp;pressure;altitude;pressure_sealevel;temperature;humidity
6829;BME280;17930;48.592;8.868;2024-03-17T00:00:24;97511.44;;;5.10;100.00
6829;BME280;17930;48.592;8.868;2024-03-17T00:02:51;97497.84;;;5.15;100.00
6829;BME280;17930;48.592;8.868;2024-03-17T00:05:19;97501.63;;;5.30;100.00
6829;BME280;17930;48.592;8.868;2024-03-17T00:07:44;97508.13;;;5.21;100.00
6829;BME280;17930;48.592;8.868;2024-03-17T00:10:11;97503.66;;;5.28;100.00
6829;BME280;17930;48.592;8.868;2024-03-17T00:12:37;97507.22;;;5.27;100.00
6829;BME280;17930;48.592;8.868;2024-03-17T00:15:05;97511.34;;;5.17;100.00
6829;BME280;17930;48.592;8.868;2024-03-17T00:17:30;97511.00;;;5.13;100.00
6829;BME280;17930;48.592;8.868;2024-03-17T00:19:59;97514.00;;;5.10;100.00
6829;BME280;17930;48.592;8.868;2024-03-17T00:22:28;97512.44;;;5.09;100.00
6829;BME280;17930;48.592;8.868;2024-03-17T00:24:55;97512.69;;;5.19;100.00
6829;BME280;17930;48.592;8.868;2024-03-17T00:27:21;97520.44;;;5.19;100.00
6829;BME280;17930;48.592;8.868;2024-03-17T00:29:48;97509.06;;;5.09;100.00
6829;BME280;17930;48.592;8.868;2024-03-17T00:32:13;97516.16;;;5.13;100.00
6829;BME280;17930;48.592;8.868;2024-03-17T00:34:40;97506.97;;;5.17;100.00
6829;BME280;17930;48.592;8.868;2024-03-17T00:37:05;97513.72;;;5.18;100.00
6829;BME280;17930;48.592;8.868;2024-03-17T00:39:34;97509.41;;;5.12;100.00
6829;BME280;17930;48.592;8.868;2024-03-17T00:42:00;97505.69;;;5.08;100.00
6829;BME280;17930;48.592;8.868;2024-03-17T00:44:27;97501.09;;;5.10;100.00
6829;BME280;17930;48.592;8.868;2024-03-17T00:46:52;97501.09;;;5.10;100.00
6829;BME280;17930;48.592;8.868;2024-03-17T00:49:19;97500.22;;;5.16;100.00
6829;BME280;17930;48.592;8.868;2024-03-17T00:51:45;97497.78;;;5.21;100.00
6829;BME280;17930;48.592;8.868;2024-03-17T00:54:13;97489.34;;;5.26;100.00
6829;BME280;17930;48.592;8.868;2024-03-17T00:56:40;97495.22;;;5.33;100.00
6829;BME280;17930;48.592;8.868;2024-03-17T00:59:07;97500.44;;;5.44;100.00
6829;BME280;17930;48.592;8.868;2024-03-17T01:01:32;97491.34;;;5.53;100.00
6829;BME280;17930;48.592;8.868;2024-03-17T01:03:59;97495.38;;;5.60;100.00
6829;BME280;17930;48.592;8.868;2024-03-17T01:06:25;97492.47;;;5.57;100.00
6829;BME280;17930;48.592;8.868;2024-03-17T01:08:52;97491.25;;;5.59;100.00
6829;BME280;17930;48.592;8.868;2024-03-17T01:11:17;97487.78;;;5.65;100.00
6829;BME280;17930;48.592;8.868;2024-03-17T01:13:46;97487.44;;;5.73;100.00
6829;BME280;17930;48.592;8.868;2024-03-17T01:16:12;97483.31;;;5.84;100.00
6829;BME280;17930;48.592;8.868;2024-03-17T01:18:39;97487.63;;;6.12;100.00
6829;BME280;17930;48.592;8.868;2024-03-17T01:21:05;97489.41;;;6.23;100.00
6829;BME280;17930;48.592;8.868;2024-03-17T01:23:32;97481.28;;;6.31;100.00
6829;BME280;17930;48.592;8.868;2024-03-17T01:25:58;97486.38;;;6.15;100.00
6829;BME280;17930;48.592;8.868;2024-03-17T01:28:24;97475.91;;;5.99;100.00
6829;BME280;17930;48.592;8.868;2024-03-17T01:30:53;97476.94;;;6.09;100.00
6829;BME280;17930;48.592;8.868;2024-03-17T01:33:19;97477.03;;;6.03;100.00
6829;BME280;17930;48.592;8.868;2024-03-17T01:35:45;97470.50;;;6.11;100.00
6829;BME280;17930;48.592;8.868;2024-03-17T01:38:12;97474.78;;;6.17;100.00
6829;BME280;17930;48.592;8.868;2024-03-17T01:40:38;97469.38;;;6.08;100.00
6829;BME280;17930;48.592;8.868;2024-03-17T01:43:08;97453.41;;;5.88;100.00
6829;BME280;17930;48.592;8.868;2024-03-17T01:45:35;97445.06;;;5.86;100.00
6829;BME280;17930;48.592;8.868;2024-03-17T01:48:12;97446.41;;;5.77;100.00
6829;BME280;17930;48.592;8.868;2024-03-17T01:50:39;97444.13;;;5.69;100.00
6829;BME280;17930;48.592;8.868;2024-03-17T01:53:08;97446.16;;;5.67;100.00
6829;BME280;17930;48.592;8.868;2024-03-17T01:55:38;97450.22;;;5.74;100.00
6829;BME280;17930;48.592;8.868;2024-03-17T01:58:05;97442.47;;;5.74;100.00
6829;BME280;17930;48.592;8.868;2024-03-17T02:00:32;97434.69;;;6.09;100.00
6829;BME280;17930;48.592;8.868;2024-03-17T02:03:01;97432.25;;;5.91;100.00
6829;BME280;17930;48.592;8.868;2024-03-17T02:05:29;97434.84;;;5.79;100.00
6829;BME280;17930;48.592;8.868;2024-03-17T02:07:55;97433.69;;;5.75;100.00
6829;BME280;17930;48.592;8.868;2024-03-17T02:10:21;97438.09;;;5.75;100.00
6829;BME280;17930;48.592;8.868;2024-03-17T02:12:48;97429.31;;;5.76;100.00
6829;BME280;17930;48.592;8.868;2024-03-17T02:15:14;97419.53;;;6.01;100.00
6829;BME280;17930;48.592;8.868;2024-03-17T02:17:41;97421.97;;;6.18;100.00
6829;BME280;17930;48.592;8.868;2024-03-17T02:20:07;97416.81;;;6.07;100.00
6829;BME280;17930;48.592;8.868;2024-03-17T02:22:37;97417.84;;;5.95;100.00
6829;BME280;17930;48.592;8.868;2024-03-17T02:25:04;97410.09;;;5.95;100.00
6829;BME280;17930;48.592;8.868;2024-03-17T02:27:34;97412.66;;;5.95;100.00
6829;BME280;17930;48.592;8.868;2024-03-17T02:30:00;97410.16;;;6.22;100.00
6829;BME280;17930;48.592;8.868;2024-03-17T02:32:26;97405.34;;;6.14;100.00
6829;BME280;17930;48.592;8.868;2024-03-17T02:34:53;97407.25;;;6.19;100.00
6829;BME280;17930;48.592;8.868;2024-03-17T02:37:20;97407.00;;;6.20;100.00
6829;BME280;17930;48.592;8.868;2024-03-17T02:39:47;97396.41;;;6.33;100.00
6829;BME280;17930;48.592;8.868;2024-03-17T02:42:13;97397.97;;;6.34;100.00
6829;BME280;17930;48.592;8.868;2024-03-17T02:44:40;97394.34;;;6.35;100.00
6829;BME280;17930;48.592;8.868;2024-03-17T02:47:07;97385.28;;;6.10;100.00
6829;BME280;17930;48.592;8.868;2024-03-17T02:49:35;97390.94;;;5.96;100.00
6829;BME280;17930;48.592;8.868;2024-03-17T02:52:05;97389.81;;;5.92;100.00
6829;BME280;17930;48.592;8.868;2024-03-17T02:54:33;97396.34;;;5.94;100.00
6829;BME280;17930;48.592;8.868;2024-03-17T02:57:02;97389.94;;;5.97;100.00
6829;BME280;17930;48.592;8.868;2024-03-17T02:59:29;97389.00;;;6.03;100.00
6829;BME280;17930;48.592;8.868;2024-03-17T03:01:58;97389.88;;;6.19;100.00
6829;BME280;17930;48.592;8.868;2024-03-17T03:04:25;97383.72;;;6.48;100.00
6829;BME280;17930;48.592;8.868;2024-03-17T03:06:52;97385.69;;;6.41;100.00
6829;BME280;17930;48.592;8.868;2024-03-17T03:09:19;97380.41;;;6.36;100.00
6829;BME280;17930;48.592;8.868;2024-03-17T03:11:50;97384.91;;;6.29;100.00
6829;BME280;17930;48.592;8.868;2024-03-17T03:14:19;97378.72;;;6.30;100.00
6829;BME280;17930;48.592;8.868;2024-03-17T03:16:45;97378.81;;;6.35;100.00
6829;BME280;17930;48.592;8.868;2024-03-17T03:19:12;97378.34;;;6.38;100.00
6829;BME280;17930;48.592;8.868;2024-03-17T03:21:39;97372.09;;;6.34;100.00
6829;BME280;17930;48.592;8.868;2024-03-17T03:24:06;97368.84;;;6.55;100.00
6829;BME280;17930;48.592;8.868;2024-03-17T03:26:33;97372.47;;;6.54;100.00
6829;BME280;17930;48.592;8.868;2024-03-17T03:28:59;97372.28;;;6.44;100.00
6829;BME280;17930;48.592;8.868;2024-03-17T03:31:28;97374.75;;;6.39;100.00
6829;BME280;17930;48.592;8.868;2024-03-17T03:33:55;97377.91;;;6.41;100.00
6829;BME280;17930;48.592;8.868;2024-03-17T03:36:22;97367.22;;;6.38;100.00
6829;BME280;17930;48.592;8.868;2024-03-17T03:38:49;97373.84;;;6.45;100.00
6829;BME280;17930;48.592;8.868;2024-03-17T03:41:16;97376.09;;;6.42;100.00
6829;BME280;17930;48.592;8.868;2024-03-17T03:43:43;97373.97;;;6.39;100.00
6829;BME280;17930;48.592;8.868;2024-03-17T03:46:11;97374.22;;;6.37;100.00
6829;BME280;17930;48.592;8.868;2024-03-17T03:48:39;97364.06;;;6.36;100.00
6829;BME280;17930;48.592;8.868;2024-03-17T03:51:06;97370.16;;;6.30;100.00
6829;BME280;17930;48.592;8.868;2024-03-17T03:53:34;97363.88;;;6.26;100.00
6829;BME280;17930;48.592;8.868;2024-03-17T03:56:03;97357.44;;;6.28;100.00
6829;BME280;17930;48.592;8.868;2024-03-17T03:58:31;97359.94;;;6.23;100.00
6829;BME280;17930;48.592;8.868;2024-03-17T04:00:59;97352.59;;;6.32;100.00
6829;BME280;17930;48.592;8.868;2024-03-17T04:03:27;97360.59;;;6.30;100.00
6829;BME280;17930;48.592;8.868;2024-03-17T04:06:02;97369.91;;;6.31;100.00
6829;BME280;17930;48.592;8.868;2024-03-17T04:08:30;97373.16;;;6.38;100.00
6829;BME280;17930;48.592;8.868;2024-03-17T04:10:56;97363.94;;;6.42;100.00
6829;BME280;17930;48.592;8.868;2024-03-17T04:13:23;97368.09;;;6.43;100.00
6829;BME280;17930;48.592;8.868;2024-03-17T04:15:50;97363.84;;;6.37;100.00
6829;BME280;17930;48.592;8.868;2024-03-17T04:18:22;97369.03;;;6.37;100.00
6829;BME280;17930;48.592;8.868;2024-03-17T04:20:50;97363.94;;;6.42;100.00
6829;BME280;17930;48.592;8.868;2024-03-17T04:23:19;97360.78;;;6.40;100.00
6829;BME280;17930;48.592;8.868;2024-03-17T04:25:47;97355.72;;;6.34;100.00
6829;BME280;17930;48.592;8.868;2024-03-17T04:28:14;97365.31;;;6.33;100.00
6829;BME280;17930;48.592;8.868;2024-03-17T04:30:40;97361.72;;;6.34;100.00
6829;BME280;17930;48.592;8.868;2024-03-17T04:33:08;97368.91;;;6.32;100.00
6829;BME280;17930;48.592;8.868;2024-03-17T04:35:35;97370.25;;;6.35;100.00
6829;BME280;17930;48.592;8.868;2024-03-17T04:38:02;97371.84;;;6.36;100.00
6829;BME280;17930;48.592;8.868;2024-03-17T04:40:30;97367.44;;;6.36;100.00
6829;BME280;17930;48.592;8.868;2024-03-17T04:42:57;97370.88;;;6.53;100.00
6829;BME280;17930;48.592;8.868;2024-03-17T04:45:23;97359.59;;;6.59;100.00
6829;BME280;17930;48.592;8.868;2024-03-17T04:47:50;97361.00;;;6.50;100.00
6829;BME280;17930;48.592;8.868;2024-03-17T04:50:17;97367.88;;;6.45;100.00
6829;BME280;17930;48.592;8.868;2024-03-17T04:52:43;97358.19;;;6.40;100.00
6829;BME280;17930;48.592;8.868;2024-03-17T04:55:10;97357.09;;;6.36;100.00
6829;BME280;17930;48.592;8.868;2024-03-17T04:57:38;97354.81;;;6.40;100.00
6829;BME280;17930;48.592;8.868;2024-03-17T05:00:06;97356.66;;;6.28;100.00
6829;BME280;17930;48.592;8.868;2024-03-17T05:02:33;97373.44;;;6.25;100.00
6829;BME280;17930;48.592;8.868;2024-03-17T05:04:59;97365.78;;;6.30;100.00
6829;BME280;17930;48.592;8.868;2024-03-17T05:07:26;97366.25;;;6.27;100.00
6829;BME280;17930;48.592;8.868;2024-03-17T05:09:53;97369.06;;;6.26;100.00
6829;BME280;17930;48.592;8.868;2024-03-17T05:12:20;97368.25;;;6.25;100.00
6829;BME280;17930;48.592;8.868;2024-03-17T05:14:48;97365.13;;;6.23;100.00
6829;BME280;17930;48.592;8.868;2024-03-17T05:17:14;97365.13;;;6.23;100.00
6829;BME280;17930;48.592;8.868;2024-03-17T05:19:41;97360.47;;;6.25;100.00
6829;BME280;17930;48.592;8.868;2024-03-17T05:22:08;97359.03;;;6.29;100.00
6829;BME280;17930;48.592;8.868;2024-03-17T05:24:35;97369.38;;;6.29;100.00
6829;BME280;17930;48.592;8.868;2024-03-17T05:27:03;97374.31;;;6.31;100.00
6829;BME280;17930;48.592;8.868;2024-03-17T05:29:29;97370.97;;;6.30;100.00
6829;BME280;17930;48.592;8.868;2024-03-17T05:31:57;97368.66;;;6.45;100.00
6829;BME280;17930;48.592;8.868;2024-03-17T05:34:24;97368.19;;;6.48;100.00
6829;BME280;17930;48.592;8.868;2024-03-17T05:36:51;97361.09;;;6.44;100.00
6829;BME280;17930;48.592;8.868;2024-03-17T05:39:18;97357.44;;;6.28;100.00
6829;BME280;17930;48.592;8.868;2024-03-17T05:41:45;97362.41;;;6.18;100.00
6829;BME280;17930;48.592;8.868;2024-03-17T05:44:14;97352.50;;;6.15;100.00
6829;BME280;17930;48.592;8.868;2024-03-17T05:46:40;97363.44;;;6.17;100.00
6829;BME280;17930;48.592;8.868;2024-03-17T05:49:09;97353.19;;;6.22;100.00
6829;BME280;17930;48.592;8.868;2024-03-17T05:51:36;97354.28;;;6.26;100.00
6829;BME280;17930;48.592;8.868;2024-03-17T05:54:03;97357.44;;;6.28;100.00
6829;BME280;17930;48.592;8.868;2024-03-17T05:56:30;97362.16;;;6.31;100.00
6829;BME280;17930;48.592;8.868;2024-03-17T05:58:56;97365.31;;;6.33;100.00
6829;BME280;17930;48.592;8.868;2024-03-17T06:01:23;97368.81;;;6.39;100.00
6829;BME280;17930;48.592;8.868;2024-03-17T06:03:50;97366.16;;;6.50;100.00
6829;BME280;17930;48.592;8.868;2024-03-17T06:06:17;97359.63;;;6.48;100.00
6829;BME280;17930;48.592;8.868;2024-03-17T06:08:44;97363.84;;;6.65;100.00
6829;BME280;17930;48.592;8.868;2024-03-17T06:11:11;97360.72;;;6.63;100.00
6829;BME280;17930;48.592;8.868;2024-03-17T06:13:38;97360.34;;;6.71;100.00
6829;BME280;17930;48.592;8.868;2024-03-17T06:16:05;97367.78;;;6.67;100.00
6829;BME280;17930;48.592;8.868;2024-03-17T06:18:32;97364.69;;;6.82;100.00
6829;BME280;17930;48.592;8.868;2024-03-17T06:20:58;97362.66;;;6.84;100.00
6829;BME280;17930;48.592;8.868;2024-03-17T06:23:26;97355.38;;;7.13;100.00
6829;BME280;17930;48.592;8.868;2024-03-17T06:25:54;97354.66;;;7.34;100.00
6829;BME280;17930;48.592;8.868;2024-03-17T06:28:21;97357.19;;;7.46;100.00
6829;BME280;17930;48.592;8.868;2024-03-17T06:30:55;97362.38;;;7.29;100.00
6829;BME280;17930;48.592;8.868;2024-03-17T06:33:21;97357.25;;;7.34;100.00
6829;BME280;17930;48.592;8.868;2024-03-17T06:35:47;97354.97;;;7.54;100.00
6829;BME280;17930;48.592;8.868;2024-03-17T06:38:14;97347.22;;;7.92;100.00
6829;BME280;17930;48.592;8.868;2024-03-17T06:40:48;97346.59;;;7.85;100.00
6829;BME280;17930;48.592;8.868;2024-03-17T06:43:14;97344.69;;;7.97;100.00
6829;BME280;17930;48.592;8.868;2024-03-17T06:45:41;97341.06;;;8.14;100.00
6829;BME280;17930;48.592;8.868;2024-03-17T06:48:08;97342.03;;;8.29;100.00
6829;BME280;17930;48.592;8.868;2024-03-17T06:50:34;97335.69;;;8.04;100.00
6829;BME280;17930;48.592;8.868;2024-03-17T06:53:03;97331.28;;;8.21;100.00
6829;BME280;17930;48.592;8.868;2024-03-17T06:55:30;97331.78;;;8.44;100.00
6829;BME280;17930;48.592;8.868;2024-03-17T06:57:58;97329.25;;;8.49;100.00
6829;BME280;17930;48.592;8.868;2024-03-17T07:00:25;97337.97;;;8.38;100.00
6829;BME280;17930;48.592;8.868;2024-03-17T07:02:51;97329.88;;;8.14;100.00
6829;BME280;17930;48.592;8.868;2024-03-17T07:05:18;97328.19;;;8.08;100.00
6829;BME280;17930;48.592;8.868;2024-03-17T07:07:45;97333.63;;;8.22;100.00
6829;BME280;17930;48.592;8.868;2024-03-17T07:10:12;97327.56;;;8.38;100.00
6829;BME280;17930;48.592;8.868;2024-03-17T07:12:39;97324.69;;;8.61;100.00
6829;BME280;17930;48.592;8.868;2024-03-17T07:15:08;97318.25;;;8.42;100.00
6829;BME280;17930;48.592;8.868;2024-03-17T07:17:36;97324.13;;;8.33;100.00
6829;BME280;17930;48.592;8.868;2024-03-17T07:20:03;97322.47;;;8.48;100.00
6829;BME280;17930;48.592;8.868;2024-03-17T07:22:33;97324.31;;;8.74;100.00
6829;BME280;17930;48.592;8.868;2024-03-17T07:24:59;97316.91;;;8.61;100.00
6829;BME280;17930;48.592;8.868;2024-03-17T07:27:26;97308.88;;;8.94;100.00
6829;BME280;17930;48.592;8.868;2024-03-17T07:29:53;97301.31;;;9.23;100.00
6829;BME280;17930;48.592;8.868;2024-03-17T07:32:21;97301.34;;;10.06;100.00
6829;BME280;17930;48.592;8.868;2024-03-17T07:34:48;97300.38;;;10.26;100.00
6829;BME280;17930;48.592;8.868;2024-03-17T07:37:16;97291.84;;;10.61;100.00
6829;BME280;17930;48.592;8.868;2024-03-17T07:39:42;97287.19;;;10.73;100.00
6829;BME280;17930;48.592;8.868;2024-03-17T07:42:09;97294.78;;;10.99;100.00
6829;BME280;17930;48.592;8.868;2024-03-17T07:44:35;97289.56;;;11.04;100.00
6829;BME280;17930;48.592;8.868;2024-03-17T07:47:02;97285.91;;;11.00;100.00
6829;BME280;17930;48.592;8.868;2024-03-17T07:49:31;97289.84;;;11.12;100.00
6829;BME280;17930;48.592;8.868;2024-03-17T07:51:58;97286.44;;;11.41;100.00
6829;BME280;17930;48.592;8.868;2024-03-17T07:54:25;97281.47;;;11.55;100.00
6829;BME280;17930;48.592;8.868;2024-03-17T07:56:52;97289.50;;;11.83;100.00
6829;BME280;17930;48.592;8.868;2024-03-17T07:59:20;97288.97;;;11.86;100.00
6829;BME280;17930;48.592;8.868;2024-03-17T08:01:47;97280.88;;;11.87;100.00
6829;BME280;17930;48.592;8.868;2024-03-17T08:04:13;97288.97;;;11.91;100.00
6829;BME280;17930;48.592;8.868;2024-03-17T08:06:43;97289.44;;;12.03;100.00
6829;BME280;17930;48.592;8.868;2024-03-17T08:09:10;97289.31;;;12.32;100.00
6829;BME280;17930;48.592;8.868;2024-03-17T08:11:37;97291.34;;;12.50;100.00
6829;BME280;17930;48.592;8.868;2024-03-17T08:14:09;97291.88;;;12.47;100.00
6829;BME280;17930;48.592;8.868;2024-03-17T08:16:35;97291.81;;;12.57;100.00
6829;BME280;17930;48.592;8.868;2024-03-17T08:19:02;97288.63;;;12.65;100.00
6829;BME280;17930;48.592;8.868;2024-03-17T08:21:29;97292.94;;;12.41;100.00
6829;BME280;17930;48.592;8.868;2024-03-17T08:23:57;97284.13;;;12.23;100.00
6829;BME280;17930;48.592;8.868;2024-03-17T08:26:24;97285.75;;;12.14;100.00
6829;BME280;17930;48.592;8.868;2024-03-17T08:28:51;97286.28;;;12.11;100.00
6829;BME280;17930;48.592;8.868;2024-03-17T08:31:18;97272.81;;;12.42;100.00
6829;BME280;17930;48.592;8.868;2024-03-17T08:33:44;97276.28;;;12.71;100.00
6829;BME280;17930;48.592;8.868;2024-03-17T08:36:16;97276.84;;;12.68;100.00
6829;BME280;17930;48.592;8.868;2024-03-17T08:38:44;97274.63;;;13.23;100.00
6829;BME280;17930;48.592;8.868;2024-03-17T08:41:12;97271.88;;;13.37;100.00
6829;BME280;17930;48.592;8.868;2024-03-17T08:43:38;97267.59;;;13.75;100.00
6829;BME280;17930;48.592;8.868;2024-03-17T08:46:08;97259.88;;;13.83;100.00
6829;BME280;17930;48.592;8.868;2024-03-17T08:48:36;97266.56;;;13.71;100.00
6829;BME280;17930;48.592;8.868;2024-03-17T08:51:04;97262.31;;;13.51;100.00
6829;BME280;17930;48.592;8.868;2024-03-17T08:53:31;97264.66;;;13.53;100.00
6829;BME280;17930;48.592;8.868;2024-03-17T08:55:59;97257.56;;;13.82;100.00
6829;BME280;17930;48.592;8.868;2024-03-17T08:58:27;97252.06;;;14.01;100.00
6829;BME280;17930;48.592;8.868;2024-03-17T09:00:54;97256.59;;;13.44;100.00
6829;BME280;17930;48.592;8.868;2024-03-17T09:03:21;97260.19;;;12.97;100.00
6829;BME280;17930;48.592;8.868;2024-03-17T09:05:49;97267.25;;;12.48;100.00
6829;BME280;17930;48.592;8.868;2024-03-17T09:08:19;97260.53;;;12.37;100.00
6829;BME280;17930;48.592;8.868;2024-03-17T09:10:48;97266.59;;;12.71;100.00
6829;BME280;17930;48.592;8.868;2024-03-17T09:13:16;97276.28;;;12.71;100.00
6829;BME280;17930;48.592;8.868;2024-03-17T09:15:51;97269.00;;;13.06;100.00
6829;BME280;17930;48.592;8.868;2024-03-17T09:18:18;97266.34;;;14.14;100.00
6829;BME280;17930;48.592;8.868;2024-03-17T09:20:45;97263.50;;;14.70;100.00
6829;BME280;17930;48.592;8.868;2024-03-17T09:23:11;97271.22;;;14.43;100.00
6829;BME280;17930;48.592;8.868;2024-03-17T09:25:39;97272.25;;;14.06;100.00
6829;BME280;17930;48.592;8.868;2024-03-17T09:28:06;97268.78;;;14.05;100.00
6829;BME280;17930;48.592;8.868;2024-03-17T09:30:33;97261.09;;;13.67;100.00
6829;BME280;17930;48.592;8.868;2024-03-17T09:33:01;97261.81;;;13.21;100.00
6829;BME280;17930;48.592;8.868;2024-03-17T09:35:30;97254.69;;;13.27;100.00
6829;BME280;17930;48.592;8.868;2024-03-17T09:37:56;97258.19;;;13.45;100.00
6829;BME280;17930;48.592;8.868;2024-03-17T09:40:23;97257.81;;;14.27;100.00
6829;BME280;17930;48.592;8.868;2024-03-17T09:42:50;97264.19;;;14.39;100.00
6829;BME280;17930;48.592;8.868;2024-03-17T09:45:18;97258.63;;;14.45;100.00
6829;BME280;17930;48.592;8.868;2024-03-17T09:47:45;97261.09;;;14.74;100.00
6829;BME280;17930;48.592;8.868;2024-03-17T09:50:14;97261.38;;;14.90;100.00
6829;BME280;17930;48.592;8.868;2024-03-17T09:52:42;97255.28;;;15.27;100.00
6829;BME280;17930;48.592;8.868;2024-03-17T09:55:15;97248.84;;;15.64;100.00
6829;BME280;17930;48.592;8.868;2024-03-17T09:57:42;97249.16;;;16.16;100.00
6829;BME280;17930;48.592;8.868;2024-03-17T10:00:11;97256.13;;;17.18;100.00
6829;BME280;17930;48.592;8.868;2024-03-17T10:02:43;97245.41;;;17.66;100.00
6829;BME280;17930;48.592;8.868;2024-03-17T10:05:22;97252.19;;;17.59;100.00
6829;BME280;17930;48.592;8.868;2024-03-17T10:07:49;97257.66;;;17.19;100.00
6829;BME280;17930;48.592;8.868;2024-03-17T10:10:18;97255.09;;;17.27;100.00
6829;BME280;17930;48.592;8.868;2024-03-17T10:12:49;97256.16;;;17.78;100.00
6829;BME280;17930;48.592;8.868;2024-03-17T10:15:17;97251.25;;;17.55;100.00
6829;BME280;17930;48.592;8.868;2024-03-17T10:17:44;97245.16;;;18.23;100.00
6829;BME280;17930;48.592;8.868;2024-03-17T10:20:12;97241.00;;;18.31;100.00
6829;BME280;17930;48.592;8.868;2024-03-17T10:22:57;97236.22;;;19.00;100.00
6829;BME280;17930;48.592;8.868;2024-03-17T10:25:24;97240.28;;;19.06;100.00
6829;BME280;17930;48.592;8.868;2024-03-17T10:27:52;97243.97;;;18.71;100.00
6829;BME280;17930;48.592;8.868;2024-03-17T10:30:19;97242.75;;;18.60;100.00
6829;BME280;17930;48.592;8.868;2024-03-17T10:32:52;97238.28;;;19.03;100.00
6829;BME280;17930;48.592;8.868;2024-03-17T10:35:33;97248.06;;;18.86;100.00
6829;BME280;17930;48.592;8.868;2024-03-17T10:38:02;97249.13;;;18.76;100.00
6829;BME280;17930;48.592;8.868;2024-03-17T10:40:31;97246.31;;;18.64;100.00
6829;BME280;17930;48.592;8.868;2024-03-17T10:43:00;97236.69;;;19.10;100.00
6829;BME280;17930;48.592;8.868;2024-03-17T10:45:27;97235.25;;;19.47;100.00
6829;BME280;17930;48.592;8.868;2024-03-17T10:47:59;97249.84;;;18.35;100.00
6829;BME280;17930;48.592;8.868;2024-03-17T10:50:30;97251.91;;;17.17;100.00
6829;BME280;17930;48.592;8.868;2024-03-17T10:53:03;97249.53;;;16.37;100.00
6829;BME280;17930;48.592;8.868;2024-03-17T10:55:40;97247.69;;;16.10;100.00
6829;BME280;17930;48.592;8.868;2024-03-17T10:58:17;97255.16;;;15.63;100.00
6829;BME280;17930;48.592;8.868;2024-03-17T11:00:50;97252.31;;;15.15;100.00
6829;BME280;17930;48.592;8.868;2024-03-17T11:03:18;97247.00;;;15.51;100.00
6829;BME280;17930;48.592;8.868;2024-03-17T11:05:47;97249.16;;;15.89;100.00
6829;BME280;17930;48.592;8.868;2024-03-17T11:08:16;97242.34;;;16.29;100.00
6829;BME280;17930;48.592;8.868;2024-03-17T11:10:49;97247.28;;;16.43;100.00
6829;BME280;17930;48.592;8.868;2024-03-17T11:13:25;97238.03;;;16.46;100.00
6829;BME280;17930;48.592;8.868;2024-03-17T11:15:53;97241.16;;;16.08;100.00
6829;BME280;17930;48.592;8.868;2024-03-17T11:18:29;97244.28;;;15.83;100.00
6829;BME280;17930;48.592;8.868;2024-03-17T11:20:57;97229.38;;;16.19;100.00
6829;BME280;17930;48.592;8.868;2024-03-17T11:23:30;97229.06;;;16.34;100.00
6829;BME280;17930;48.592;8.868;2024-03-17T11:25:57;97221.88;;;15.99;100.00
6829;BME280;17930;48.592;8.868;2024-03-17T11:28:44;97222.25;;;15.52;100.00
6829;BME280;17930;48.592;8.868;2024-03-17T11:31:37;97221.25;;;16.15;100.00
6829;BME280;17930;48.592;8.868;2024-03-17T11:34:26;97229.16;;;16.77;100.00
6829;BME280;17930;48.592;8.868;2024-03-17T11:36:54;97231.53;;;16.65;100.00
6829;BME280;17930;48.592;8.868;2024-03-17T11:39:48;97219.22;;;16.74;100.00
6829;BME280;17930;48.592;8.868;2024-03-17T11:42:22;97221.41;;;16.45;100.00
6829;BME280;17930;48.592;8.868;2024-03-17T11:44:59;97222.16;;;16.59;100.00
6829;BME280;17930;48.592;8.868;2024-03-17T11:47:36;97215.84;;;16.82;100.00
6829;BME280;17930;48.592;8.868;2024-03-17T11:50:05;97224.66;;;16.78;100.00
6829;BME280;17930;48.592;8.868;2024-03-17T11:52:31;97219.44;;;17.08;100.00
6829;BME280;17930;48.592;8.868;2024-03-17T11:54:59;97211.91;;;16.71;100.00
6829;BME280;17930;48.592;8.868;2024-03-17T11:57:26;97211.25;;;16.52;100.00
6829;BME280;17930;48.592;8.868;2024-03-17T11:59:55;97209.75;;;16.95;100.00
6829;BME280;17930;48.592;8.868;2024-03-17T12:02:22;97206.19;;;16.78;100.00
6829;BME280;17930;48.592;8.868;2024-03-17T12:04:51;97198.41;;;16.94;100.00
6829;BME280;17930;48.592;8.868;2024-03-17T12:07:19;97198.59;;;16.98;100.00
6829;BME280;17930;48.592;8.868;2024-03-17T12:09:47;97198.34;;;17.30;100.00
6829;BME280;17930;48.592;8.868;2024-03-17T12:12:17;97192.69;;;17.45;100.00
6829;BME280;17930;48.592;8.868;2024-03-17T12:14:45;97196.16;;;17.23;100.00
6829;BME280;17930;48.592;8.868;2024-03-17T12:17:12;97190.44;;;17.30;100.00
6829;BME280;17930;48.592;8.868;2024-03-17T12:19:40;97182.56;;;16.64;100.00
6829;BME280;17930;48.592;8.868;2024-03-17T12:22:08;97190.09;;;16.79;100.00
6829;BME280;17930;48.592;8.868;2024-03-17T12:24:35;97180.66;;;16.78;100.00
6829;BME280;17930;48.592;8.868;2024-03-17T12:27:05;97178.53;;;16.89;100.00
6829;BME280;17930;48.592;8.868;2024-03-17T12:29:34;97175.81;;;17.02;100.00
6829;BME280;17930;48.592;8.868;2024-03-17T12:32:03;97174.13;;;17.06;100.00
6829;BME280;17930;48.592;8.868;2024-03-17T12:34:32;97161.16;;;17.40;100.00
6829;BME280;17930;48.592;8.868;2024-03-17T12:37:00;97158.69;;;17.13;100.00
6829;BME280;17930;48.592;8.868;2024-03-17T12:39:27;97157.69;;;17.22;100.00
6829;BME280;17930;48.592;8.868;2024-03-17T12:42:07;97155.34;;;16.99;100.00
6829;BME280;17930;48.592;8.868;2024-03-17T12:44:36;97154.63;;;17.76;100.00
6829;BME280;17930;48.592;8.868;2024-03-17T12:47:04;97147.66;;;17.88;100.00
6829;BME280;17930;48.592;8.868;2024-03-17T12:49:32;97151.19;;;18.39;100.00
6829;BME280;17930;48.592;8.868;2024-03-17T12:52:00;97137.59;;;18.91;100.00
6829;BME280;17930;48.592;8.868;2024-03-17T12:54:28;97139.16;;;19.09;100.00
6829;BME280;17930;48.592;8.868;2024-03-17T12:57:03;97140.44;;;18.36;100.00
6829;BME280;17930;48.592;8.868;2024-03-17T12:59:49;97143.22;;;18.64;100.00
6829;BME280;17930;48.592;8.868;2024-03-17T13:02:34;97142.47;;;18.64;100.00
6829;BME280;17930;48.592;8.868;2024-03-17T13:05:17;97121.31;;;20.01;100.00
6829;BME280;17930;48.592;8.868;2024-03-17T13:07:44;97123.53;;;20.92;97.32
6829;BME280;17930;48.592;8.868;2024-03-17T13:10:14;97122.97;;;20.86;92.23
6829;BME280;17930;48.592;8.868;2024-03-17T13:12:41;97124.09;;;20.04;91.09